Time;durP1;ratioP1;P1;durP2;ratioP2;P2;SDS_P1;SDS_P2;PMS_P1;PMS_P2;Temp;Humidity;BMP_temperature;BMP_pressure;BME280_temperature;BME280_humidity;BME280_pressure;Samples;Min_cycle;Max_cycle;Signal;HPM_P1;HPM_P2
2022/07/30 00:00:23;;;;;;;3.83;0.93;;;;;;;11.83;73.58;100154.08;1735357;80;21707;-61
2022/07/30 00:02:52;;;;;;;3.15;1.35;;;;;;;11.83;73.63;100154.08;1769944;79;20862;-61
2022/07/30 00:05:19;;;;;;;1.77;1.10;;;;;;;11.82;73.63;100156.32;1769335;79;21752;-61
2022/07/30 00:07:46;;;;;;;2.70;1.20;;;;;;;11.83;73.86;100155.39;1738776;80;21467;-60
2022/07/30 00:10:13;;;;;;;1.80;1.10;;;;;;;11.86;73.91;100151.36;1756804;80;20959;-61
2022/07/30 00:12:39;;;;;;;2.87;0.90;;;;;;;11.88;74.02;100150.45;1754976;80;20925;-61
2022/07/30 00:15:07;;;;;;;3.77;1.40;;;;;;;11.91;74.16;100155.55;1749507;80;20866;-61
2022/07/30 00:17:34;;;;;;;2.10;0.90;;;;;;;11.94;74.28;100156.71;1769653;79;21791;-61
2022/07/30 00:20:01;;;;;;;1.77;1.12;;;;;;;11.99;74.40;100154.73;1772245;79;21020;-61
2022/07/30 00:22:28;;;;;;;3.62;1.20;;;;;;;12.03;74.53;100153.66;1756551;80;20955;-60
2022/07/30 00:24:54;;;;;;;1.70;1.37;;;;;;;12.05;74.59;100146.59;1769454;79;21666;-61
2022/07/30 00:27:21;;;;;;;1.10;0.80;;;;;;;12.05;74.72;100149.21;1766145;80;21511;-61
2022/07/30 00:29:48;;;;;;;1.10;0.90;;;;;;;12.05;74.81;100146.59;1753383;80;21243;-61
2022/07/30 00:32:14;;;;;;;1.30;1.00;;;;;;;12.04;75.00;100151.42;1755106;80;22113;-60
2022/07/30 00:34:41;;;;;;;3.17;0.77;;;;;;;12.02;75.07;100151.98;1753367;80;21503;-61
2022/07/30 00:37:08;;;;;;;1.82;0.98;;;;;;;12.03;75.16;100145.81;1750032;80;20974;-61
2022/07/30 00:39:34;;;;;;;2.50;0.80;;;;;;;12.02;75.26;100144.97;1754353;80;20898;-60
2022/07/30 00:42:03;;;;;;;1.57;0.90;;;;;;;12.02;75.40;100142.81;1754287;80;21027;-61
2022/07/30 00:44:30;;;;;;;1.60;0.70;;;;;;;12.02;75.38;100145.44;1754141;81;21465;-61
2022/07/30 00:46:57;;;;;;;4.30;2.05;;;;;;;12.02;75.59;100142.81;1756181;80;20895;-61
2022/07/30 00:49:24;;;;;;;3.60;1.05;;;;;;;12.07;75.72;100143.42;1753360;80;20944;-61
2022/07/30 00:51:52;;;;;;;3.55;1.22;;;;;;;12.10;75.78;100136.77;1754081;81;26201;-61
2022/07/30 00:54:20;;;;;;;2.22;1.12;;;;;;;12.10;75.80;100139.38;1755563;81;21312;-61
2022/07/30 00:56:47;;;;;;;1.77;1.00;;;;;;;12.13;75.87;100136.62;1756868;80;21468;-61
2022/07/30 00:59:14;;;;;;;;;;;;;;;12.08;76.16;100128.13;1757970;81;20874;-61
2022/07/30 01:01:40;;;;;;;1.67;0.80;;;;;;;12.08;76.37;100133.36;1754080;81;20416;-60
2022/07/30 01:04:10;;;;;;;2.37;1.10;;;;;;;12.08;76.42;100129.44;1752532;80;20902;-61
2022/07/30 01:06:37;;;;;;;1.52;0.88;;;;;;;12.09;76.57;100132.43;1747323;80;21083;-61
2022/07/30 01:09:04;;;;;;;1.67;0.70;;;;;;;11.95;76.73;100106.91;1752469;80;20835;-61
2022/07/30 01:11:38;;;;;;;1.07;0.72;;;;;;;11.95;76.73;100106.91;1750527;80;21349;-61
2022/07/30 01:14:07;;;;;;;1.02;0.85;;;;;;;12.07;76.90;100126.41;1751012;81;20930;-61
2022/07/30 01:16:36;;;;;;;3.12;0.70;;;;;;;12.04;76.96;100125.25;1754456;80;21419;-61
2022/07/30 01:22:00;;;;;;;1.65;0.80;;;;;;;12.00;77.11;100125.02;1748640;80;20981;-61
2022/07/30 01:24:43;;;;;;;2.67;0.90;;;;;;;11.98;77.29;100121.61;1754120;80;21024;-61
2022/07/30 01:27:11;;;;;;;1.27;0.85;;;;;;;11.86;77.41;100096.41;1745988;81;21005;-61
2022/07/30 01:29:40;;;;;;;1.02;0.70;;;;;;;12.00;77.54;100118.47;1747555;81;20950;-61
2022/07/30 01:32:08;;;;;;;1.67;0.95;;;;;;;11.99;77.67;100102.40;1752183;80;21006;-61
2022/07/30 01:34:37;;;;;;;1.00;0.78;;;;;;;11.93;77.85;100086.95;1753017;81;21401;-61
2022/07/30 01:37:07;;;;;;;1.65;0.88;;;;;;;12.00;77.88;100094.45;1750041;80;20914;-61
2022/07/30 01:39:35;;;;;;;0.78;0.60;;;;;;;12.01;77.91;100084.83;1753262;80;20882;-61
2022/07/30 01:42:06;;;;;;;1.75;0.93;;;;;;;12.04;77.96;100091.23;1751272;80;21475;-61
2022/07/30 01:44:34;;;;;;;2.72;0.75;;;;;;;12.07;78.02;100087.15;1749831;80;40279;-61
2022/07/30 01:47:01;;;;;;;4.17;0.90;;;;;;;12.10;78.05;100077.87;1752484;80;20910;-61
2022/07/30 01:49:29;;;;;;;1.32;0.70;;;;;;;12.12;78.20;100077.31;1753471;80;26861;-61
2022/07/30 01:51:56;;;;;;;;;;;;;;;12.12;78.28;100082.55;1757825;80;20965;-61
2022/07/30 01:54:26;;;;;;;2.02;0.88;;;;;;;12.15;78.52;100073.23;1741977;80;20939;-61
2022/07/30 01:56:56;;;;;;;1.70;0.72;;;;;;;12.15;78.52;100073.23;1747414;80;21034;-61
2022/07/30 01:59:26;;;;;;;1.25;0.60;;;;;;;12.15;78.80;100066.69;1745521;80;21593;-61
2022/07/30 02:01:52;;;;;;;1.37;0.75;;;;;;;12.17;78.73;100070.09;1750466;80;21527;-61
2022/07/30 02:04:19;;;;;;;1.85;0.82;;;;;;;12.16;78.78;100065.80;1750618;80;20980;-61
2022/07/30 02:07:03;;;;;;;1.52;0.65;;;;;;;12.16;78.87;100060.56;1737358;80;21452;-61
2022/07/30 02:09:37;;;;;;;1.82;1.00;;;;;;;12.17;78.93;100058.31;1725927;82;21138;-61
2022/07/30 02:15:11;;;;;;;;;;;;;;;12.17;79.26;100060.94;1730353;82;20942;-61
2022/07/30 02:18:01;;;;;;;1.70;0.55;;;;;;;12.17;79.56;100058.31;1726359;82;20098;-60
2022/07/30 02:20:31;;;;;;;1.20;1.00;;;;;;;12.19;79.61;100057.79;1723966;82;21004;-61
2022/07/30 02:23:08;;;;;;;1.35;0.60;;;;;;;12.21;79.67;100057.70;1726143;82;20985;-61
2022/07/30 02:25:38;;;;;;;1.60;0.60;;;;;;;12.19;79.81;100051.24;1726374;82;21467;-61
2022/07/30 02:28:09;;;;;;;0.82;0.60;;;;;;;12.22;80.04;100047.16;1725958;82;21500;-61
2022/07/30 02:30:40;;;;;;;2.65;0.60;;;;;;;12.18;80.08;100035.12;1729180;82;20950;-60
2022/07/30 02:33:11;;;;;;;0.30;0.30;;;;;;;12.23;80.12;100038.38;1745549;81;20930;-61
2022/07/30 02:35:38;;;;;;;1.00;0.60;;;;;;;12.24;80.40;100032.23;1740347;81;21015;-61
2022/07/30 02:38:06;;;;;;;2.37;0.80;;;;;;;12.22;80.20;100031.45;1729477;82;20983;-61
2022/07/30 02:40:33;;;;;;;1.20;0.50;;;;;;;12.20;80.29;100025.44;1729268;82;20917;-61
2022/07/30 02:43:01;;;;;;;1.52;0.60;;;;;;;12.20;80.42;100029.36;1733591;82;20898;-61
2022/07/30 02:45:29;;;;;;;3.00;1.37;;;;;;;12.22;80.57;100023.61;1727848;82;21557;-61
2022/07/30 02:48:06;;;;;;;1.12;0.80;;;;;;;12.25;80.48;100026.53;1728797;82;21286;-61
2022/07/30 02:50:34;;;;;;;2.02;0.80;;;;;;;12.30;80.74;100029.31;1742127;81;20885;-61
2022/07/30 02:53:04;;;;;;;1.47;0.75;;;;;;;12.31;80.83;100033.61;1722689;82;20871;-61
2022/07/30 02:55:34;;;;;;;3.05;0.50;;;;;;;12.34;80.96;100031.77;1732465;82;21511;-60
2022/07/30 02:58:03;;;;;;;2.12;0.68;;;;;;;12.34;80.96;100031.77;1725640;82;21612;-61
2022/07/30 03:00:33;;;;;;;1.25;0.70;;;;;;;12.30;81.25;100021.45;1726232;82;21004;-62
2022/07/30 03:03:00;;;;;;;1.57;0.80;;;;;;;12.42;81.16;100032.24;1725413;82;20955;-61
2022/07/30 03:05:27;;;;;;;;;;;;;;;12.42;81.16;100032.24;1728679;82;20956;-61
2022/07/30 03:07:56;;;;;;;1.10;0.68;;;;;;;12.45;81.44;100030.31;1751096;80;20082;-61
2022/07/30 03:10:24;;;;;;;1.40;0.78;;;;;;;12.46;81.50;100028.53;1753622;80;21673;-61
2022/07/30 03:12:53;;;;;;;1.95;0.80;;;;;;;12.42;81.68;100008.67;1751522;80;21097;-61
2022/07/30 03:15:20;;;;;;;1.62;0.60;;;;;;;12.42;81.68;100008.67;1755226;80;20905;-61
2022/07/30 03:17:51;;;;;;;1.60;0.68;;;;;;;12.57;81.62;100032.77;1753426;81;21479;-61
2022/07/30 03:20:22;;;;;;;3.42;0.70;;;;;;;12.62;81.67;100029.45;1757222;80;20915;-61
2022/07/30 03:22:52;;;;;;;1.17;0.70;;;;;;;12.63;82.02;100008.91;1754410;80;20884;-61
2022/07/30 03:25:24;;;;;;;5.58;0.80;;;;;;;13.48;83.04;100032.86;1771017;79;21041;-61
2022/07/30 03:27:53;;;;;;;3.60;0.90;;;;;;;14.50;83.17;100025.36;1751484;80;20963;-62
2022/07/30 03:30:23;;;;;;;1.27;0.60;;;;;;;15.35;82.39;100033.84;1743650;80;20942;-61
2022/07/30 03:32:51;;;;;;;3.30;0.75;;;;;;;15.60;81.54;100038.86;1768430;79;20862;-61
2022/07/30 03:35:20;;;;;;;1.12;0.60;;;;;;;16.28;82.39;100033.61;1773428;79;20969;-61
2022/07/30 03:37:48;;;;;;;3.40;0.75;;;;;;;17.23;82.25;100035.09;1768665;79;20971;-61
2022/07/30 03:40:14;;;;;;;;;;;;;;;18.11;81.74;100037.61;1755263;81;20931;-62
2022/07/30 03:42:42;;;;;;;6.10;0.95;;;;;;;18.92;81.20;100032.00;1753058;80;20124;-62
2022/07/30 03:45:12;;;;;;;1.42;0.90;;;;;;;19.79;81.36;100034.88;1752981;81;20917;-62
2022/07/30 03:47:40;;;;;;;3.50;1.20;;;;;;;20.55;80.51;100041.50;1759033;80;20961;-62
2022/07/30 03:50:11;;;;;;;3.72;1.35;;;;;;;21.28;80.14;100036.19;1750980;81;21021;-62
2022/07/30 03:52:40;;;;;;;3.02;1.00;;;;;;;21.97;79.77;100039.42;1768270;79;20944;-62
2022/07/30 03:55:09;;;;;;;3.25;1.00;;;;;;;22.69;79.38;100040.85;1752522;80;20981;-63
2022/07/30 03:57:36;;;;;;;2.33;1.20;;;;;;;23.43;78.84;100040.91;1755532;81;20867;-62
2022/07/30 04:00:14;;;;;;;3.12;0.80;;;;;;;24.10;78.05;100032.68;1751997;80;20910;-62
2022/07/30 04:02:43;;;;;;;1.52;0.75;;;;;;;24.68;77.48;100033.54;1758372;80;21039;-62
2022/07/30 04:05:13;;;;;;;6.67;1.12;;;;;;;25.27;77.03;100035.09;1755835;80;20901;-62
2022/07/30 04:07:41;;;;;;;1.45;0.90;;;;;;;25.82;76.38;100033.30;1756781;81;20906;-62
2022/07/30 04:10:08;;;;;;;4.80;0.78;;;;;;;26.39;75.51;100029.88;1749828;80;20913;-62
2022/07/30 04:12:35;;;;;;;3.62;1.12;;;;;;;26.78;74.71;100021.17;1756763;80;21017;-63
2022/07/30 04:15:03;;;;;;;1.57;0.82;;;;;;;27.41;73.88;100014.96;1756299;80;22030;-63
2022/07/30 04:17:46;;;;;;;2.75;1.10;;;;;;;27.62;72.43;100012.20;1758148;80;20889;-63
2022/07/30 04:20:27;;;;;;;3.40;1.10;;;;;;;27.74;71.68;100016.14;1755567;80;21541;-63
2022/07/30 04:22:55;;;;;;;2.15;1.00;;;;;;;27.64;70.38;100016.86;1753805;81;20933;-61
2022/07/30 04:25:22;;;;;;;2.67;0.93;;;;;;;27.61;69.97;100018.55;1756812;80;20945;-61
2022/07/30 04:27:50;;;;;;;4.28;1.10;;;;;;;27.72;69.58;100020.84;1757830;80;21102;-61
2022/07/30 04:30:17;;;;;;;2.85;1.07;;;;;;;28.03;68.83;100014.64;1758934;80;20973;-62
2022/07/30 04:32:44;;;;;;;2.52;0.80;;;;;;;28.28;67.94;100009.41;1752153;80;20968;-62
2022/07/30 04:35:11;;;;;;;4.08;0.90;;;;;;;28.41;67.00;100009.33;1758613;80;20890;-62
2022/07/30 04:37:38;;;;;;;1.30;0.95;;;;;;;28.11;65.61;100006.53;1758175;80;20933;-61
2022/07/30 04:40:06;;;;;;;4.05;1.52;;;;;;;27.41;65.03;100000.73;1757080;80;22185;-62
2022/07/30 04:42:33;;;;;;;2.65;1.00;;;;;;;26.72;64.14;100011.11;1756228;80;20874;-61
2022/07/30 04:44:59;;;;;;;;;;;;;;;26.10;63.82;100016.48;1759328;80;20891;-62
2022/07/30 04:47:26;;;;;;;1.67;0.80;;;;;;;25.76;63.25;100009.02;1755018;80;20129;-62
2022/07/30 04:49:54;;;;;;;;;;;;;;;25.74;63.39;100005.66;1759417;80;21008;-62
2022/07/30 04:52:22;;;;;;;2.92;0.95;;;;;;;26.11;62.95;100003.43;1756397;80;21891;-62
2022/07/30 04:54:56;;;;;;;1.67;0.78;;;;;;;26.52;62.63;100002.13;1757089;80;20913;-62
2022/07/30 04:57:25;;;;;;;2.02;0.70;;;;;;;26.99;62.23;100002.69;1756206;80;21432;-62
2022/07/30 04:59:51;;;;;;;2.70;1.00;;;;;;;27.56;61.67;100000.81;1757264;80;20964;-62
2022/07/30 05:02:20;;;;;;;3.27;0.90;;;;;;;27.85;60.98;100005.04;1759268;80;21473;-62
2022/07/30 05:04:48;;;;;;;2.90;1.00;;;;;;;28.03;60.16;100007.94;1759250;81;20946;-62
2022/07/30 05:07:16;;;;;;;3.45;1.00;;;;;;;28.07;59.41;100012.77;1734777;79;20890;-62
2022/07/30 05:09:43;;;;;;;2.08;0.93;;;;;;;27.83;58.60;100013.77;1771425;79;20992;-62
2022/07/30 05:12:10;;;;;;;4.33;0.68;;;;;;;27.53;58.68;100007.87;1763390;80;20890;-62
2022/07/30 05:14:37;;;;;;;4.35;0.80;;;;;;;27.98;58.52;100015.68;1772014;79;21469;-62
2022/07/30 05:17:05;;;;;;;2.62;0.53;;;;;;;28.37;58.25;100006.66;1775535;79;21052;-62
2022/07/30 05:19:31;;;;;;;3.42;0.70;;;;;;;28.88;57.56;100000.17;1775992;79;20951;-63
2022/07/30 05:21:58;;;;;;;1.50;0.90;;;;;;;28.88;56.74;100001.52;1719837;81;20932;-62
2022/07/30 05:24:25;;;;;;;1.07;0.60;;;;;;;28.86;55.99;99993.63;1743349;80;20912;-62
2022/07/30 05:26:52;;;;;;;7.40;0.70;;;;;;;28.76;55.81;99999.77;1763009;79;21484;-63
2022/07/30 05:29:19;;;;;;;2.17;0.65;;;;;;;28.80;55.28;99997.57;1778043;79;21734;-62
2022/07/30 05:31:46;;;;;;;2.45;0.75;;;;;;;28.94;54.79;99998.91;1778604;79;20970;-62
2022/07/30 05:34:12;;;;;;;1.75;0.70;;;;;;;28.98;54.36;100006.09;1762813;80;20926;-62
2022/07/30 05:36:39;;;;;;;2.70;0.50;;;;;;;29.01;53.41;100008.41;1778886;79;20919;-63
2022/07/30 05:39:06;;;;;;;4.92;0.70;;;;;;;28.75;52.66;100005.66;1762290;79;20985;-63
2022/07/30 05:41:33;;;;;;;1.10;0.50;;;;;;;28.54;52.50;100004.21;1777336;79;20995;-62
2022/07/30 05:44:00;;;;;;;0.93;0.55;;;;;;;28.40;51.71;100008.98;1742450;80;20948;-62
2022/07/30 05:46:27;;;;;;;1.57;0.70;;;;;;;28.13;51.53;100004.52;1764284;79;20996;-62
2022/07/30 05:48:54;;;;;;;1.72;0.57;;;;;;;28.05;50.62;100005.91;1766847;79;20897;-62
2022/07/30 05:51:21;;;;;;;0.85;0.55;;;;;;;27.98;49.92;100004.46;1768005;79;21779;-63
2022/07/30 05:53:48;;;;;;;0.88;0.68;;;;;;;27.62;49.76;100000.95;1765445;79;21050;-61
2022/07/30 05:56:14;;;;;;;5.28;0.90;;;;;;;27.19;49.53;100003.15;1742655;79;20992;-62
2022/07/30 05:58:41;;;;;;;1.62;0.60;;;;;;;26.80;49.17;99997.71;1767150;81;20962;-62
2022/07/30 06:01:08;;;;;;;1.25;0.80;;;;;;;26.50;48.99;100002.80;1767654;79;20926;-62
2022/07/30 06:03:35;;;;;;;2.55;0.78;;;;;;;26.36;49.00;100003.44;1775928;79;20900;-62
2022/07/30 06:06:05;;;;;;;1.47;0.57;;;;;;;26.55;49.17;99996.44;1773506;80;21046;-62
2022/07/30 06:08:33;;;;;;;3.08;0.82;;;;;;;26.82;48.87;99993.53;1771366;80;20924;-62
2022/07/30 06:11:00;;;;;;;1.62;0.90;;;;;;;26.80;48.54;99992.35;1769390;79;20914;-62
2022/07/30 06:13:26;;;;;;;2.90;0.57;;;;;;;26.89;48.21;99991.34;1766787;79;21484;-62
2022/07/30 06:15:53;;;;;;;0.82;0.47;;;;;;;26.88;48.02;99994.18;1758372;80;20997;-62
2022/07/30 06:18:20;;;;;;;1.92;0.70;;;;;;;26.78;47.96;99993.87;1753478;81;21161;-62
2022/07/30 06:20:50;;;;;;;1.67;0.60;;;;;;;26.69;47.81;99987.35;1748276;81;20897;-62
2022/07/30 06:23:15;;;;;;;1.15;0.68;;;;;;;26.72;47.60;99987.01;1748660;80;20963;-62
2022/07/30 06:25:43;;;;;;;1.62;0.50;;;;;;;26.65;47.36;99984.70;1755605;80;20893;-62
2022/07/30 06:28:11;;;;;;;3.15;0.70;;;;;;;26.53;47.41;99986.39;1751325;80;21496;-62
2022/07/30 06:30:38;;;;;;;1.12;0.60;;;;;;;26.53;47.13;99984.22;1752486;80;21049;-62
2022/07/30 06:33:04;;;;;;;0.75;0.45;;;;;;;26.36;46.55;99987.38;1756080;80;20933;-62
2022/07/30 06:35:33;;;;;;;0.72;0.40;;;;;;;25.99;46.58;99979.83;1754871;81;21424;-61
2022/07/30 06:38:00;;;;;;;2.22;0.65;;;;;;;25.52;46.13;99994.59;1752924;80;20934;-61
2022/07/30 06:40:27;;;;;;;;;;;;;;;25.01;46.34;99993.66;1755204;80;20910;-61
2022/07/30 06:42:55;;;;;;;0.68;0.47;;;;;;;24.69;46.60;99996.99;1751688;80;21922;-61
2022/07/30 06:45:22;;;;;;;1.15;0.42;;;;;;;24.51;46.51;99997.05;1754216;80;20950;-62
2022/07/30 06:47:48;;;;;;;;;;;;;;;24.34;46.54;99998.22;1758494;80;21550;-62
2022/07/30 06:50:17;;;;;;;1.20;0.60;;;;;;;24.17;46.46;99999.08;1754021;80;20103;-62
2022/07/30 06:52:45;;;;;;;1.20;0.70;;;;;;;24.13;46.47;100004.36;1754986;80;20981;-62
2022/07/30 06:55:12;;;;;;;5.75;0.70;;;;;;;23.93;46.55;99995.67;1753880;80;21122;-60
2022/07/30 06:57:39;;;;;;;2.15;0.75;;;;;;;23.83;46.86;99999.73;1756956;80;21849;-60
2022/07/30 07:00:07;;;;;;;1.52;0.57;;;;;;;23.78;46.76;99998.04;1752254;80;21489;-61
2022/07/30 07:02:34;;;;;;;1.10;0.60;;;;;;;23.53;46.81;100004.06;1771521;79;20908;-60
2022/07/30 07:05:01;;;;;;;;;;;;;;;23.33;47.01;100010.83;1760762;80;20877;-60
2022/07/30 07:07:28;;;;;;;1.75;0.68;;;;;;;23.28;46.83;100006.42;1757885;80;21845;-61
2022/07/30 07:09:54;;;;;;;0.78;0.50;;;;;;;23.19;47.23;100005.95;1755059;80;20891;-61
2022/07/30 07:12:21;;;;;;;2.77;0.42;;;;;;;23.29;47.38;100002.77;1753799;80;21558;-61
2022/07/30 07:14:49;;;;;;;3.87;0.53;;;;;;;23.42;47.27;99997.94;1759177;80;20914;-61
2022/07/30 07:17:16;;;;;;;2.65;0.50;;;;;;;23.20;47.06;100000.99;1764992;80;20973;-60
2022/07/30 07:19:43;;;;;;;0.95;0.45;;;;;;;22.91;47.20;100004.58;1757485;80;21432;-61
2022/07/30 07:22:10;;;;;;;1.32;0.70;;;;;;;22.73;47.40;99992.98;1753910;80;21478;-61
2022/07/30 07:24:36;;;;;;;;;;;;;;;22.61;47.58;99996.81;1759807;80;20973;-61
2022/07/30 07:27:03;;;;;;;7.42;0.80;;;;;;;22.63;47.80;99989.50;1759216;80;20215;-60
2022/07/30 07:29:30;;;;;;;0.88;0.60;;;;;;;22.54;47.62;99992.03;1755058;80;21633;-60
2022/07/30 07:31:57;;;;;;;2.87;0.60;;;;;;;22.43;47.70;99993.52;1756334;81;21003;-61
2022/07/30 07:34:24;;;;;;;1.82;0.53;;;;;;;22.31;47.88;99993.34;1756783;80;21586;-60
2022/07/30 07:36:50;;;;;;;1.00;0.50;;;;;;;22.35;48.32;99994.75;1753197;81;20917;-60
2022/07/30 07:39:17;;;;;;;2.47;0.60;;;;;;;22.44;48.16;99988.57;1756540;80;20953;-60
2022/07/30 07:41:44;;;;;;;2.85;0.50;;;;;;;22.43;47.94;99990.86;1754603;80;20886;-60
2022/07/30 07:44:10;;;;;;;1.10;0.50;;;;;;;22.35;48.08;99994.75;1771509;79;21023;-61
2022/07/30 07:46:37;;;;;;;0.82;0.40;;;;;;;22.31;48.22;99982.70;1768549;79;20945;-60
2022/07/30 07:49:04;;;;;;;1.05;0.50;;;;;;;22.43;48.22;99990.86;1737830;81;20915;-60
2022/07/30 07:51:30;;;;;;;0.85;0.53;;;;;;;22.52;48.54;99990.53;1769002;79;21549;-61
2022/07/30 07:53:57;;;;;;;1.35;0.40;;;;;;;22.70;48.27;99985.30;1750984;80;21511;-60
2022/07/30 07:56:24;;;;;;;2.05;0.53;;;;;;;22.75;48.36;99988.37;1751413;80;21042;-61
2022/07/30 07:58:52;;;;;;;0.68;0.40;;;;;;;22.75;48.22;99988.37;1755335;80;21460;-60
2022/07/30 08:01:23;;;;;;;1.65;0.55;;;;;;;22.62;47.90;99974.53;1752697;80;20969;-61
2022/07/30 08:03:51;;;;;;;1.45;0.50;;;;;;;22.46;47.68;99977.30;1768019;79;20953;-61
2022/07/30 08:06:20;;;;;;;1.70;0.60;;;;;;;22.36;48.01;99987.11;1768516;79;20921;-60
2022/07/30 08:08:52;;;;;;;0.95;0.42;;;;;;;22.35;47.91;99978.79;1752471;80;21045;-61
2022/07/30 08:11:19;;;;;;;0.85;0.53;;;;;;;22.29;47.44;99981.98;1750906;80;21445;-60
2022/07/30 08:13:46;;;;;;;;;;;;;;;22.11;47.52;99978.69;1756943;80;20871;-60
2022/07/30 08:16:13;;;;;;;0.95;0.50;;;;;;;22.21;47.75;99971.22;1753901;79;20142;-61
2022/07/30 08:18:40;;;;;;;1.20;0.50;;;;;;;22.28;47.89;99976.33;1748586;80;20929;-60
2022/07/30 08:21:07;;;;;;;0.98;0.50;;;;;;;22.40;47.93;99971.20;1746331;80;21917;-60
2022/07/30 08:23:34;;;;;;;3.52;0.70;;;;;;;22.41;47.47;99966.24;1749507;80;20984;-60
2022/07/30 08:26:01;;;;;;;1.85;0.60;;;;;;;22.35;47.51;99974.80;1724678;81;21448;-60
2022/07/30 08:28:30;;;;;;;3.72;0.90;;;;;;;22.43;47.73;99973.56;1712335;82;20945;-60
2022/07/30 08:30:56;;;;;;;1.42;0.60;;;;;;;22.42;47.65;99963.92;1710129;82;20941;-61
2022/07/30 08:33:23;;;;;;;2.67;0.80;;;;;;;22.50;47.45;99982.67;1708448;82;21194;-60
2022/07/30 08:35:50;;;;;;;2.00;0.60;;;;;;;22.42;47.67;99961.27;1708255;82;20946;-61
2022/07/30 08:38:16;;;;;;;1.62;0.40;;;;;;;22.48;47.27;99966.00;1708918;82;21100;-61
2022/07/30 08:40:43;;;;;;;1.67;0.62;;;;;;;22.48;47.01;99966.00;1711517;83;20933;-60
2022/07/30 08:43:10;;;;;;;;;;;;;;;22.44;47.06;99964.63;1710185;82;20969;-60
2022/07/30 08:45:38;;;;;;;0.93;0.50;;;;;;;22.43;46.47;99960.27;1743738;80;21046;-60
2022/07/30 08:48:08;;;;;;;5.03;0.70;;;;;;;22.22;46.42;99972.91;1722859;81;20980;-60
2022/07/30 08:50:35;;;;;;;2.37;0.70;;;;;;;22.19;46.42;99961.23;1681626;83;20887;-61
2022/07/30 08:53:03;;;;;;;3.90;0.50;;;;;;;22.31;46.32;99964.08;1709802;82;20937;-60
2022/07/30 08:55:29;;;;;;;2.05;0.50;;;;;;;22.48;46.12;99965.17;1752267;81;20946;-60
2022/07/30 08:57:57;;;;;;;1.30;0.68;;;;;;;22.55;46.22;99959.14;1744029;81;21085;-60
2022/07/30 09:00:24;;;;;;;2.62;0.60;;;;;;;22.62;46.03;99962.55;1750248;80;21438;-60
2022/07/30 09:02:53;;;;;;;4.00;1.00;;;;;;;22.66;46.21;99957.27;1752676;80;20976;-60
2022/07/30 09:05:20;;;;;;;2.08;0.57;;;;;;;22.62;45.77;99969.20;1727181;81;20975;-60
2022/07/30 09:07:47;;;;;;;2.00;0.50;;;;;;;22.69;45.98;99959.67;1689383;84;20918;-60
2022/07/30 09:10:16;;;;;;;1.47;0.40;;;;;;;22.83;46.01;99952.55;1749134;80;21042;-61
2022/07/30 09:12:44;;;;;;;1.95;0.40;;;;;;;22.96;45.70;99964.22;1751452;80;20937;-60
2022/07/30 09:15:18;;;;;;;1.52;0.45;;;;;;;22.86;45.09;99954.92;1775456;78;20933;-60
2022/07/30 09:17:59;;;;;;;1.02;0.60;;;;;;;22.60;44.73;99949.88;1767263;79;21420;-61
2022/07/30 09:20:33;;;;;;;4.83;0.57;;;;;;;22.39;44.59;99952.23;1774853;79;20937;-61
2022/07/30 09:23:04;;;;;;;3.17;0.57;;;;;;;22.24;44.42;99956.33;1764943;79;20907;-60
2022/07/30 09:25:45;;;;;;;1.05;0.40;;;;;;;22.12;44.44;99984.38;1771548;79;20964;-60
2022/07/30 09:28:12;;;;;;;1.67;0.45;;;;;;;22.19;44.35;99949.27;1767149;79;20989;-60
2022/07/30 09:30:52;;;;;;;0.93;0.40;;;;;;;22.13;44.00;99958.13;1737900;81;20982;-61
2022/07/30 09:33:37;;;;;;;1.10;0.60;;;;;;;22.08;43.52;99945.73;1750984;80;21589;-60
2022/07/30 09:36:08;;;;;;;2.50;0.42;;;;;;;22.16;43.77;99946.86;1753154;80;21050;-60
2022/07/30 09:38:51;;;;;;;2.80;0.42;;;;;;;22.15;43.61;99953.14;1754940;80;20913;-60
2022/07/30 09:41:38;;;;;;;1.57;0.62;;;;;;;22.10;43.67;99959.73;1754541;80;21519;-60
2022/07/30 09:44:06;;;;;;;1.27;0.70;;;;;;;22.06;43.35;99956.99;1757460;80;20889;-60
2022/07/30 09:46:46;;;;;;;2.02;0.50;;;;;;;22.05;43.50;99955.32;1757855;80;20917;-61
2022/07/30 09:49:22;;;;;;;1.20;0.40;;;;;;;22.08;43.15;99948.39;1753209;80;21303;-61
2022/07/30 09:51:51;;;;;;;2.08;0.70;;;;;;;22.19;43.08;99953.25;1735634;80;21506;-60
2022/07/30 09:54:18;;;;;;;3.52;0.82;;;;;;;22.18;42.77;99952.89;1762289;80;20950;-60
2022/07/30 09:56:47;;;;;;;0.90;0.50;;;;;;;22.20;42.95;99944.28;1754506;80;20902;-60
2022/07/30 09:59:28;;;;;;;3.50;0.60;;;;;;;22.22;42.93;99935.69;1757468;80;20917;-60
2022/07/30 10:01:56;;;;;;;1.98;0.60;;;;;;;22.31;43.03;99932.99;1757071;80;21052;-61
2022/07/30 10:04:27;;;;;;;0.85;0.62;;;;;;;22.33;42.51;99936.85;1755485;80;20909;-61
2022/07/30 10:06:56;;;;;;;1.62;0.50;;;;;;;22.21;42.61;99937.51;1757721;80;20952;-61
2022/07/30 10:09:31;;;;;;;0.90;0.40;;;;;;;22.22;42.56;99938.34;1748335;80;20991;-61
2022/07/30 10:12:00;;;;;;;2.22;0.60;;;;;;;22.28;42.92;99935.94;1756319;80;20953;-62
2022/07/30 10:14:36;;;;;;;0.80;0.55;;;;;;;22.33;42.85;99938.19;1755844;80;21146;-61
2022/07/30 10:17:04;;;;;;;1.45;0.60;;;;;;;22.27;42.71;99948.07;1747955;80;21394;-61
2022/07/30 10:19:35;;;;;;;0.95;0.60;;;;;;;22.23;42.67;99941.34;1756685;80;20970;-61
2022/07/30 10:22:02;;;;;;;1.57;0.62;;;;;;;22.09;42.52;99936.77;1752646;80;20930;-62
2022/07/30 10:24:30;;;;;;;;;;;;;;;22.03;42.26;99947.97;1782290;79;20944;-62
2022/07/30 10:26:57;;;;;;;1.67;0.50;;;;;;;21.97;42.49;99945.88;1772263;79;20905;-62
2022/07/30 10:29:24;;;;;;;0.42;0.40;;;;;;;21.96;42.66;99941.55;1767955;79;28256;-63
2022/07/30 10:31:51;;;;;;;2.20;0.60;;;;;;;22.08;42.25;99946.23;1771006;80;21550;-62
2022/07/30 10:34:19;;;;;;;4.58;0.53;;;;;;;21.98;42.40;99944.89;1737903;81;20956;-62
2022/07/30 10:36:59;;;;;;;0.78;0.42;;;;;;;22.05;42.34;99943.36;1764203;79;21111;-62
2022/07/30 10:39:39;;;;;;;2.08;0.70;;;;;;;22.09;42.20;99956.70;1780097;79;21028;-62
2022/07/30 10:42:28;;;;;;;0.95;0.45;;;;;;;22.07;42.28;99937.88;1773761;80;20943;-62
2022/07/30 10:45:03;;;;;;;5.72;0.57;;;;;;;22.02;41.89;99938.33;1766312;80;20946;-62
2022/07/30 10:47:31;;;;;;;1.45;0.60;;;;;;;21.85;41.85;99936.38;1773565;79;20927;-62
2022/07/30 10:50:08;;;;;;;2.50;0.68;;;;;;;21.90;41.69;99948.73;1775047;80;20968;-62
2022/07/30 10:52:55;;;;;;;1.72;0.65;;;;;;;21.92;41.83;99946.78;1773989;80;21159;-61
2022/07/30 10:55:32;;;;;;;4.62;0.70;;;;;;;21.98;41.63;99941.39;1773462;79;20977;-61
2022/07/30 10:58:06;;;;;;;1.05;0.45;;;;;;;21.96;41.38;99942.88;1770519;79;21025;-61
2022/07/30 11:00:52;;;;;;;1.35;0.60;;;;;;;21.88;41.43;99942.73;1769787;80;20906;-62
2022/07/30 11:03:29;;;;;;;5.00;0.90;;;;;;;21.83;41.57;99933.01;1774067;79;20977;-62
2022/07/30 11:06:17;;;;;;;8.50;0.62;;;;;;;21.91;41.49;99945.11;1770794;79;21053;-61
2022/07/30 11:08:47;;;;;;;2.45;0.53;;;;;;;21.85;41.71;99931.89;1764646;80;20858;-61
2022/07/30 11:11:29;;;;;;;1.37;0.55;;;;;;;21.94;41.67;99924.89;1756756;81;21520;-61
2022/07/30 11:14:01;;;;;;;5.30;0.50;;;;;;;21.96;41.86;99933.58;1752326;80;20886;-61
2022/07/30 11:16:36;;;;;;;0.68;0.50;;;;;;;21.98;41.73;99936.91;1755198;80;21041;-60
2022/07/30 11:19:12;;;;;;;1.12;0.50;;;;;;;21.94;41.59;99932.87;1754186;80;21047;-61
2022/07/30 11:21:38;;;;;;;1.35;0.60;;;;;;;22.03;41.96;99934.67;1754733;80;20973;-61
2022/07/30 11:24:04;;;;;;;;;;;;;;;22.00;41.57;99934.95;1755430;80;20941;-61
2022/07/30 11:26:46;;;;;;;;;;;;;;;21.91;41.74;99939.80;1757882;80;20490;-60
2022/07/30 11:29:39;;;;;;;1.72;0.45;;;;;;;21.94;41.88;99930.20;1753268;80;20102;-61
2022/07/30 11:32:27;;;;;;;1.82;0.47;;;;;;;21.90;41.52;99931.45;1753662;80;21045;-61
2022/07/30 11:35:13;;;;;;;1.35;0.53;;;;;;;21.95;41.99;99929.22;1689299;83;20910;-61
2022/07/30 11:38:11;;;;;;;3.00;0.90;;;;;;;21.98;42.06;99926.27;1671419;83;20976;-61
2022/07/30 11:40:53;;;;;;;3.33;0.75;;;;;;;21.95;42.13;99939.02;1685160;83;21984;-61
2022/07/30 11:43:32;;;;;;;6.53;0.40;;;;;;;21.97;42.34;99915.30;1682860;84;21008;-61
2022/07/30 11:46:19;;;;;;;1.37;0.40;;;;;;;22.21;42.65;99913.57;1681599;84;21084;-61
2022/07/30 11:48:56;;;;;;;;;;;;;;;22.21;42.10;99919.36;1685856;84;20909;-61
2022/07/30 11:51:23;;;;;;;2.02;0.70;;;;;;;22.16;42.12;99930.91;1684675;83;20104;-61